sensor_id;sensor_type;location;lat;lon;timestamp;P1;durP1;ratioP1;P2;durP2;ratioP2
4676;SDS011;2352;48.180;11.478;2024-03-25T00:00:35;1.87;;;1.70;;
4676;SDS011;2352;48.180;11.478;2024-03-25T00:05:36;1.73;;;1.63;;
4676;SDS011;2352;48.180;11.478;2024-03-25T00:10:37;1.50;;;1.40;;
4676;SDS011;2352;48.180;11.478;2024-03-25T00:15:38;1.87;;;1.73;;
4676;SDS011;2352;48.180;11.478;2024-03-25T00:20:39;3.20;;;1.70;;
4676;SDS011;2352;48.180;11.478;2024-03-25T00:25:40;1.60;;;1.50;;
4676;SDS011;2352;48.180;11.478;2024-03-25T00:30:41;4.90;;;1.80;;
4676;SDS011;2352;48.180;11.478;2024-03-25T00:35:42;5.53;;;2.03;;
4676;SDS011;2352;48.180;11.478;2024-03-25T00:40:43;2.23;;;1.93;;
4676;SDS011;2352;48.180;11.478;2024-03-25T00:45:44;2.63;;;1.60;;
4676;SDS011;2352;48.180;11.478;2024-03-25T00:50:45;2.20;;;1.60;;
4676;SDS011;2352;48.180;11.478;2024-03-25T00:55:46;2.07;;;1.40;;
4676;SDS011;2352;48.180;11.478;2024-03-25T01:00:47;8.10;;;1.83;;
4676;SDS011;2352;48.180;11.478;2024-03-25T01:05:48;1.87;;;1.57;;
4676;SDS011;2352;48.180;11.478;2024-03-25T01:10:48;2.37;;;1.90;;
4676;SDS011;2352;48.180;11.478;2024-03-25T01:15:49;1.90;;;1.63;;
4676;SDS011;2352;48.180;11.478;2024-03-25T01:20:50;2.20;;;2.00;;
4676;SDS011;2352;48.180;11.478;2024-03-25T01:25:51;2.97;;;1.60;;
4676;SDS011;2352;48.180;11.478;2024-03-25T01:30:52;2.17;;;1.40;;
4676;SDS011;2352;48.180;11.478;2024-03-25T01:35:54;2.83;;;2.10;;
4676;SDS011;2352;48.180;11.478;2024-03-25T01:40:55;1.93;;;1.70;;
4676;SDS011;2352;48.180;11.478;2024-03-25T01:46:07;2.77;;;1.70;;
4676;SDS011;2352;48.180;11.478;2024-03-25T01:51:09;1.40;;;1.30;;
4676;SDS011;2352;48.180;11.478;2024-03-25T01:56:12;1.97;;;1.40;;
4676;SDS011;2352;48.180;11.478;2024-03-25T02:01:15;1.67;;;1.57;;
4676;SDS011;2352;48.180;11.478;2024-03-25T02:06:17;1.70;;;1.60;;
4676;SDS011;2352;48.180;11.478;2024-03-25T02:11:19;1.83;;;1.73;;
4676;SDS011;2352;48.180;11.478;2024-03-25T02:16:20;2.50;;;1.83;;
4676;SDS011;2352;48.180;11.478;2024-03-25T02:21:20;2.33;;;2.13;;
4676;SDS011;2352;48.180;11.478;2024-03-25T02:26:21;1.97;;;1.87;;
4676;SDS011;2352;48.180;11.478;2024-03-25T02:31:23;1.90;;;1.80;;
4676;SDS011;2352;48.180;11.478;2024-03-25T02:36:24;1.50;;;1.40;;
4676;SDS011;2352;48.180;11.478;2024-03-25T02:41:25;1.80;;;1.70;;
4676;SDS011;2352;48.180;11.478;2024-03-25T02:46:26;2.73;;;2.00;;
4676;SDS011;2352;48.180;11.478;2024-03-25T02:51:27;1.77;;;1.67;;
4676;SDS011;2352;48.180;11.478;2024-03-25T02:56:28;2.63;;;1.97;;
4676;SDS011;2352;48.180;11.478;2024-03-25T03:01:29;2.23;;;2.03;;
4676;SDS011;2352;48.180;11.478;2024-03-25T03:06:29;2.20;;;2.03;;
4676;SDS011;2352;48.180;11.478;2024-03-25T03:11:30;1.87;;;1.77;;
4676;SDS011;2352;48.180;11.478;2024-03-25T03:16:32;3.17;;;2.87;;
4676;SDS011;2352;48.180;11.478;2024-03-25T03:21:33;2.67;;;2.43;;
4676;SDS011;2352;48.180;11.478;2024-03-25T03:26:34;8.27;;;2.13;;
4676;SDS011;2352;48.180;11.478;2024-03-25T03:31:34;5.10;;;2.87;;
4676;SDS011;2352;48.180;11.478;2024-03-25T03:36:36;3.43;;;3.23;;
4676;SDS011;2352;48.180;11.478;2024-03-25T03:41:37;2.13;;;1.93;;
4676;SDS011;2352;48.180;11.478;2024-03-25T03:46:38;2.13;;;1.93;;
4676;SDS011;2352;48.180;11.478;2024-03-25T03:51:39;2.27;;;1.80;;
4676;SDS011;2352;48.180;11.478;2024-03-25T03:56:39;2.23;;;2.13;;
4676;SDS011;2352;48.180;11.478;2024-03-25T04:01:40;2.37;;;2.17;;
4676;SDS011;2352;48.180;11.478;2024-03-25T04:06:41;2.47;;;2.23;;
4676;SDS011;2352;48.180;11.478;2024-03-25T04:11:41;2.77;;;2.10;;
4676;SDS011;2352;48.180;11.478;2024-03-25T04:16:42;2.03;;;1.93;;
4676;SDS011;2352;48.180;11.478;2024-03-25T04:21:43;2.03;;;1.83;;
4676;SDS011;2352;48.180;11.478;2024-03-25T04:26:44;2.40;;;2.07;;
4676;SDS011;2352;48.180;11.478;2024-03-25T04:31:45;4.73;;;2.23;;
4676;SDS011;2352;48.180;11.478;2024-03-25T04:36:46;3.80;;;2.60;;
4676;SDS011;2352;48.180;11.478;2024-03-25T04:41:47;5.90;;;2.27;;
4676;SDS011;2352;48.180;11.478;2024-03-25T04:46:48;2.60;;;2.40;;
4676;SDS011;2352;48.180;11.478;2024-03-25T04:51:49;3.97;;;2.27;;
4676;SDS011;2352;48.180;11.478;2024-03-25T04:56:52;3.33;;;2.50;;
4676;SDS011;2352;48.180;11.478;2024-03-25T05:01:53;2.13;;;2.00;;
4676;SDS011;2352;48.180;11.478;2024-03-25T05:06:54;3.00;;;2.23;;
4676;SDS011;2352;48.180;11.478;2024-03-25T05:11:54;3.33;;;2.27;;
4676;SDS011;2352;48.180;11.478;2024-03-25T05:16:55;3.53;;;2.17;;
4676;SDS011;2352;48.180;11.478;2024-03-25T05:21:56;2.60;;;2.40;;
4676;SDS011;2352;48.180;11.478;2024-03-25T05:26:57;2.73;;;2.50;;
4676;SDS011;2352;48.180;11.478;2024-03-25T05:31:59;3.47;;;2.40;;
4676;SDS011;2352;48.180;11.478;2024-03-25T05:37:00;2.33;;;2.13;;
4676;SDS011;2352;48.180;11.478;2024-03-25T05:42:01;2.60;;;2.33;;
4676;SDS011;2352;48.180;11.478;2024-03-25T05:47:02;2.47;;;2.23;;
4676;SDS011;2352;48.180;11.478;2024-03-25T05:52:03;2.47;;;2.27;;
4676;SDS011;2352;48.180;11.478;2024-03-25T05:57:04;2.30;;;2.10;;
4676;SDS011;2352;48.180;11.478;2024-03-25T06:02:05;4.10;;;3.80;;
4676;SDS011;2352;48.180;11.478;2024-03-25T06:07:06;4.10;;;2.93;;
4676;SDS011;2352;48.180;11.478;2024-03-25T06:12:07;2.73;;;2.50;;
4676;SDS011;2352;48.180;11.478;2024-03-25T06:17:08;4.03;;;2.17;;
4676;SDS011;2352;48.180;11.478;2024-03-25T06:22:09;3.47;;;3.13;;
4676;SDS011;2352;48.180;11.478;2024-03-25T06:27:10;4.20;;;3.17;;
4676;SDS011;2352;48.180;11.478;2024-03-25T06:32:10;2.80;;;2.50;;
4676;SDS011;2352;48.180;11.478;2024-03-25T06:37:30;4.13;;;2.57;;
4676;SDS011;2352;48.180;11.478;2024-03-25T06:42:31;4.03;;;3.70;;
4676;SDS011;2352;48.180;11.478;2024-03-25T06:47:31;2.70;;;2.50;;
4676;SDS011;2352;48.180;11.478;2024-03-25T06:52:32;3.50;;;2.80;;
4676;SDS011;2352;48.180;11.478;2024-03-25T06:57:33;6.50;;;2.70;;
4676;SDS011;2352;48.180;11.478;2024-03-25T07:02:34;3.87;;;2.60;;
4676;SDS011;2352;48.180;11.478;2024-03-25T07:07:35;3.30;;;2.27;;
4676;SDS011;2352;48.180;11.478;2024-03-25T07:12:36;2.70;;;2.50;;
4676;SDS011;2352;48.180;11.478;2024-03-25T07:17:36;2.30;;;1.83;;
4676;SDS011;2352;48.180;11.478;2024-03-25T07:22:37;6.17;;;2.70;;
4676;SDS011;2352;48.180;11.478;2024-03-25T07:27:38;4.80;;;2.40;;
4676;SDS011;2352;48.180;11.478;2024-03-25T07:32:39;3.23;;;2.37;;
4676;SDS011;2352;48.180;11.478;2024-03-25T07:37:40;5.60;;;2.87;;
4676;SDS011;2352;48.180;11.478;2024-03-25T07:42:41;2.10;;;2.00;;
4676;SDS011;2352;48.180;11.478;2024-03-25T07:47:41;3.83;;;2.13;;
4676;SDS011;2352;48.180;11.478;2024-03-25T07:52:42;5.80;;;3.23;;
4676;SDS011;2352;48.180;11.478;2024-03-25T07:57:43;8.60;;;3.80;;
4676;SDS011;2352;48.180;11.478;2024-03-25T08:02:44;5.23;;;3.10;;
4676;SDS011;2352;48.180;11.478;2024-03-25T08:07:44;3.10;;;2.70;;
4676;SDS011;2352;48.180;11.478;2024-03-25T08:12:45;5.63;;;2.83;;
4676;SDS011;2352;48.180;11.478;2024-03-25T08:17:46;2.83;;;2.63;;
4676;SDS011;2352;48.180;11.478;2024-03-25T08:22:48;2.67;;;2.23;;
4676;SDS011;2352;48.180;11.478;2024-03-25T08:27:49;2.90;;;2.10;;
4676;SDS011;2352;48.180;11.478;2024-03-25T08:32:50;4.30;;;3.00;;
4676;SDS011;2352;48.180;11.478;2024-03-25T08:37:51;2.53;;;2.33;;
4676;SDS011;2352;48.180;11.478;2024-03-25T08:42:52;3.50;;;2.53;;
4676;SDS011;2352;48.180;11.478;2024-03-25T08:47:53;5.10;;;3.33;;
4676;SDS011;2352;48.180;11.478;2024-03-25T08:52:53;4.87;;;3.23;;
4676;SDS011;2352;48.180;11.478;2024-03-25T08:57:54;7.03;;;2.83;;
4676;SDS011;2352;48.180;11.478;2024-03-25T09:02:55;3.37;;;3.00;;
4676;SDS011;2352;48.180;11.478;2024-03-25T09:07:56;3.23;;;3.00;;
4676;SDS011;2352;48.180;11.478;2024-03-25T09:12:58;2.87;;;2.57;;
4676;SDS011;2352;48.180;11.478;2024-03-25T09:17:59;3.67;;;2.60;;
4676;SDS011;2352;48.180;11.478;2024-03-25T09:23:00;2.80;;;2.60;;
4676;SDS011;2352;48.180;11.478;2024-03-25T09:28:01;2.93;;;2.67;;
4676;SDS011;2352;48.180;11.478;2024-03-25T09:33:03;4.40;;;2.70;;
4676;SDS011;2352;48.180;11.478;2024-03-25T09:38:04;2.60;;;2.10;;
4676;SDS011;2352;48.180;11.478;2024-03-25T09:43:04;3.00;;;2.33;;
4676;SDS011;2352;48.180;11.478;2024-03-25T09:48:13;3.90;;;1.70;;
4676;SDS011;2352;48.180;11.478;2024-03-25T09:53:15;2.47;;;1.80;;
4676;SDS011;2352;48.180;11.478;2024-03-25T09:58:16;3.00;;;2.10;;
4676;SDS011;2352;48.180;11.478;2024-03-25T10:03:19;4.43;;;2.17;;
4676;SDS011;2352;48.180;11.478;2024-03-25T10:08:21;2.10;;;1.83;;
4676;SDS011;2352;48.180;11.478;2024-03-25T10:13:22;5.57;;;1.97;;
4676;SDS011;2352;48.180;11.478;2024-03-25T10:18:23;3.77;;;2.20;;
4676;SDS011;2352;48.180;11.478;2024-03-25T10:23:24;3.00;;;1.60;;
4676;SDS011;2352;48.180;11.478;2024-03-25T10:28:26;1.60;;;1.20;;
4676;SDS011;2352;48.180;11.478;2024-03-25T10:33:26;3.87;;;1.60;;
4676;SDS011;2352;48.180;11.478;2024-03-25T10:38:27;4.13;;;1.83;;
4676;SDS011;2352;48.180;11.478;2024-03-25T10:43:30;1.37;;;1.20;;
4676;SDS011;2352;48.180;11.478;2024-03-25T10:48:33;1.30;;;1.20;;
4676;SDS011;2352;48.180;11.478;2024-03-25T10:53:37;1.33;;;0.97;;
4676;SDS011;2352;48.180;11.478;2024-03-25T10:58:39;2.17;;;1.10;;
4676;SDS011;2352;48.180;11.478;2024-03-25T11:03:40;1.43;;;1.27;;
4676;SDS011;2352;48.180;11.478;2024-03-25T11:08:41;1.50;;;1.17;;
4676;SDS011;2352;48.180;11.478;2024-03-25T11:13:46;1.53;;;1.13;;
4676;SDS011;2352;48.180;11.478;2024-03-25T11:18:50;1.40;;;1.30;;
4676;SDS011;2352;48.180;11.478;2024-03-25T11:23:51;1.73;;;1.23;;
4676;SDS011;2352;48.180;11.478;2024-03-25T11:28:52;2.07;;;1.40;;
4676;SDS011;2352;48.180;11.478;2024-03-25T11:33:54;0.77;;;0.77;;
4676;SDS011;2352;48.180;11.478;2024-03-25T11:38:58;1.47;;;1.17;;
4676;SDS011;2352;48.180;11.478;2024-03-25T11:44:09;3.13;;;1.33;;
4676;SDS011;2352;48.180;11.478;2024-03-25T11:49:13;1.10;;;1.00;;
4676;SDS011;2352;48.180;11.478;2024-03-25T11:54:15;1.57;;;1.30;;
4676;SDS011;2352;48.180;11.478;2024-03-25T11:59:16;1.50;;;1.17;;
4676;SDS011;2352;48.180;11.478;2024-03-25T12:04:17;2.10;;;1.83;;
4676;SDS011;2352;48.180;11.478;2024-03-25T12:09:18;2.93;;;1.60;;
4676;SDS011;2352;48.180;11.478;2024-03-25T12:14:38;1.30;;;1.10;;
4676;SDS011;2352;48.180;11.478;2024-03-25T12:19:39;1.43;;;1.13;;
4676;SDS011;2352;48.180;11.478;2024-03-25T12:24:41;1.00;;;0.90;;
4676;SDS011;2352;48.180;11.478;2024-03-25T12:29:42;4.10;;;1.47;;
4676;SDS011;2352;48.180;11.478;2024-03-25T12:34:43;1.90;;;0.73;;
4676;SDS011;2352;48.180;11.478;2024-03-25T12:39:47;1.60;;;1.07;;
4676;SDS011;2352;48.180;11.478;2024-03-25T12:44:48;1.67;;;0.93;;
4676;SDS011;2352;48.180;11.478;2024-03-25T12:49:49;1.60;;;1.00;;
4676;SDS011;2352;48.180;11.478;2024-03-25T12:54:50;0.90;;;0.80;;
4676;SDS011;2352;48.180;11.478;2024-03-25T12:59:51;1.43;;;1.20;;
4676;SDS011;2352;48.180;11.478;2024-03-25T13:04:52;1.53;;;1.03;;
4676;SDS011;2352;48.180;11.478;2024-03-25T13:09:54;1.03;;;0.93;;
4676;SDS011;2352;48.180;11.478;2024-03-25T13:14:55;0.87;;;0.87;;
4676;SDS011;2352;48.180;11.478;2024-03-25T13:19:56;1.00;;;0.83;;
4676;SDS011;2352;48.180;11.478;2024-03-25T13:24:57;1.20;;;1.10;;
4676;SDS011;2352;48.180;11.478;2024-03-25T13:29:58;1.13;;;0.93;;
4676;SDS011;2352;48.180;11.478;2024-03-25T13:34:59;1.90;;;1.10;;
4676;SDS011;2352;48.180;11.478;2024-03-25T13:40:01;2.40;;;1.03;;
4676;SDS011;2352;48.180;11.478;2024-03-25T13:45:03;2.50;;;1.00;;
4676;SDS011;2352;48.180;11.478;2024-03-25T13:50:06;1.87;;;0.80;;
4676;SDS011;2352;48.180;11.478;2024-03-25T13:55:08;1.27;;;0.97;;
4676;SDS011;2352;48.180;11.478;2024-03-25T14:00:09;5.33;;;1.00;;
4676;SDS011;2352;48.180;11.478;2024-03-25T14:05:11;0.97;;;0.80;;
4676;SDS011;2352;48.180;11.478;2024-03-25T14:10:11;0.93;;;0.87;;
4676;SDS011;2352;48.180;11.478;2024-03-25T14:15:12;2.80;;;1.20;;
4676;SDS011;2352;48.180;11.478;2024-03-25T14:20:14;3.23;;;1.20;;
4676;SDS011;2352;48.180;11.478;2024-03-25T14:25:15;1.30;;;0.90;;
4676;SDS011;2352;48.180;11.478;2024-03-25T14:30:16;1.30;;;0.93;;
4676;SDS011;2352;48.180;11.478;2024-03-25T14:35:17;1.93;;;0.70;;
4676;SDS011;2352;48.180;11.478;2024-03-25T14:40:17;1.50;;;0.87;;
4676;SDS011;2352;48.180;11.478;2024-03-25T14:45:18;2.20;;;1.30;;
4676;SDS011;2352;48.180;11.478;2024-03-25T14:50:20;2.27;;;0.87;;
4676;SDS011;2352;48.180;11.478;2024-03-25T14:55:21;2.07;;;1.50;;
4676;SDS011;2352;48.180;11.478;2024-03-25T15:00:22;3.13;;;1.97;;
4676;SDS011;2352;48.180;11.478;2024-03-25T15:05:24;1.30;;;1.00;;
4676;SDS011;2352;48.180;11.478;2024-03-25T15:10:25;1.47;;;1.20;;
4676;SDS011;2352;48.180;11.478;2024-03-25T15:15:27;1.47;;;1.33;;
4676;SDS011;2352;48.180;11.478;2024-03-25T15:20:28;2.87;;;1.13;;
4676;SDS011;2352;48.180;11.478;2024-03-25T15:25:29;1.80;;;1.30;;
4676;SDS011;2352;48.180;11.478;2024-03-25T15:30:30;1.00;;;0.70;;
4676;SDS011;2352;48.180;11.478;2024-03-25T15:35:31;0.80;;;0.80;;
4676;SDS011;2352;48.180;11.478;2024-03-25T15:40:32;6.57;;;1.30;;
4676;SDS011;2352;48.180;11.478;2024-03-25T15:45:33;1.97;;;1.07;;
4676;SDS011;2352;48.180;11.478;2024-03-25T15:50:33;1.53;;;1.20;;
4676;SDS011;2352;48.180;11.478;2024-03-25T15:55:34;0.93;;;0.93;;
4676;SDS011;2352;48.180;11.478;2024-03-25T16:00:35;1.73;;;0.90;;
4676;SDS011;2352;48.180;11.478;2024-03-25T16:05:37;1.10;;;1.00;;
4676;SDS011;2352;48.180;11.478;2024-03-25T16:10:40;3.60;;;1.10;;
4676;SDS011;2352;48.180;11.478;2024-03-25T16:15:41;2.63;;;1.20;;
4676;SDS011;2352;48.180;11.478;2024-03-25T16:20:41;2.03;;;1.20;;
4676;SDS011;2352;48.180;11.478;2024-03-25T16:25:42;1.13;;;0.70;;
4676;SDS011;2352;48.180;11.478;2024-03-25T16:30:44;3.10;;;1.10;;
4676;SDS011;2352;48.180;11.478;2024-03-25T16:35:45;3.60;;;1.10;;
4676;SDS011;2352;48.180;11.478;2024-03-25T16:40:46;2.53;;;1.30;;
4676;SDS011;2352;48.180;11.478;2024-03-25T16:45:47;1.53;;;1.30;;
4676;SDS011;2352;48.180;11.478;2024-03-25T16:50:48;3.40;;;1.63;;
4676;SDS011;2352;48.180;11.478;2024-03-25T16:55:49;2.10;;;1.10;;
4676;SDS011;2352;48.180;11.478;2024-03-25T17:00:50;2.03;;;1.00;;
4676;SDS011;2352;48.180;11.478;2024-03-25T17:05:52;2.77;;;1.13;;
4676;SDS011;2352;48.180;11.478;2024-03-25T17:10:53;1.20;;;1.00;;
4676;SDS011;2352;48.180;11.478;2024-03-25T17:15:54;1.73;;;1.17;;
4676;SDS011;2352;48.180;11.478;2024-03-25T17:20:58;2.90;;;1.40;;
4676;SDS011;2352;48.180;11.478;2024-03-25T17:26:03;1.67;;;1.53;;
4676;SDS011;2352;48.180;11.478;2024-03-25T17:31:06;2.33;;;1.20;;
4676;SDS011;2352;48.180;11.478;2024-03-25T17:36:07;2.30;;;1.63;;
4676;SDS011;2352;48.180;11.478;2024-03-25T17:41:08;4.73;;;1.70;;
4676;SDS011;2352;48.180;11.478;2024-03-25T17:46:09;4.17;;;1.33;;
4676;SDS011;2352;48.180;11.478;2024-03-25T17:51:09;1.80;;;1.67;;
4676;SDS011;2352;48.180;11.478;2024-03-25T17:56:10;2.70;;;1.70;;
4676;SDS011;2352;48.180;11.478;2024-03-25T18:01:11;2.03;;;1.60;;
4676;SDS011;2352;48.180;11.478;2024-03-25T18:06:12;1.30;;;1.20;;
4676;SDS011;2352;48.180;11.478;2024-03-25T18:11:13;1.77;;;1.47;;
4676;SDS011;2352;48.180;11.478;2024-03-25T18:16:14;2.33;;;2.13;;
4676;SDS011;2352;48.180;11.478;2024-03-25T18:21:15;2.50;;;2.30;;
4676;SDS011;2352;48.180;11.478;2024-03-25T18:26:15;3.37;;;2.17;;
4676;SDS011;2352;48.180;11.478;2024-03-25T18:31:16;2.50;;;2.30;;
4676;SDS011;2352;48.180;11.478;2024-03-25T18:36:17;3.77;;;3.47;;
4676;SDS011;2352;48.180;11.478;2024-03-25T18:41:18;5.83;;;4.47;;
4676;SDS011;2352;48.180;11.478;2024-03-25T18:46:18;5.83;;;4.93;;
4676;SDS011;2352;48.180;11.478;2024-03-25T18:51:19;2.50;;;2.17;;
4676;SDS011;2352;48.180;11.478;2024-03-25T18:56:20;1.97;;;1.80;;
4676;SDS011;2352;48.180;11.478;2024-03-25T19:01:21;2.60;;;2.30;;
4676;SDS011;2352;48.180;11.478;2024-03-25T19:06:22;2.30;;;1.97;;
4676;SDS011;2352;48.180;11.478;2024-03-25T19:11:23;2.90;;;2.10;;
4676;SDS011;2352;48.180;11.478;2024-03-25T19:16:24;3.73;;;2.00;;
4676;SDS011;2352;48.180;11.478;2024-03-25T19:21:24;2.03;;;1.73;;
4676;SDS011;2352;48.180;11.478;2024-03-25T19:26:25;2.33;;;1.93;;
4676;SDS011;2352;48.180;11.478;2024-03-25T19:31:26;2.53;;;1.90;;
4676;SDS011;2352;48.180;11.478;2024-03-25T19:36:27;2.03;;;1.87;;
4676;SDS011;2352;48.180;11.478;2024-03-25T19:41:28;2.10;;;1.90;;
4676;SDS011;2352;48.180;11.478;2024-03-25T19:46:30;2.37;;;1.87;;
4676;SDS011;2352;48.180;11.478;2024-03-25T19:51:31;3.23;;;2.60;;
4676;SDS011;2352;48.180;11.478;2024-03-25T19:56:32;2.03;;;1.77;;
4676;SDS011;2352;48.180;11.478;2024-03-25T20:01:33;3.80;;;2.07;;
4676;SDS011;2352;48.180;11.478;2024-03-25T20:06:34;4.77;;;2.20;;
4676;SDS011;2352;48.180;11.478;2024-03-25T20:11:36;2.47;;;2.27;;
4676;SDS011;2352;48.180;11.478;2024-03-25T20:16:37;3.10;;;2.50;;
4676;SDS011;2352;48.180;11.478;2024-03-25T20:21:38;2.80;;;2.50;;
4676;SDS011;2352;48.180;11.478;2024-03-25T20:26:44;4.60;;;3.00;;
4676;SDS011;2352;48.180;11.478;2024-03-25T20:31:44;3.40;;;3.10;;
4676;SDS011;2352;48.180;11.478;2024-03-25T20:36:45;3.07;;;2.77;;
4676;SDS011;2352;48.180;11.478;2024-03-25T20:41:46;3.50;;;3.27;;
4676;SDS011;2352;48.180;11.478;2024-03-25T20:46:47;4.07;;;3.67;;
4676;SDS011;2352;48.180;11.478;2024-03-25T20:51:47;5.07;;;3.17;;
4676;SDS011;2352;48.180;11.478;2024-03-25T20:56:48;4.40;;;4.00;;
4676;SDS011;2352;48.180;11.478;2024-03-25T21:01:49;3.00;;;2.70;;
4676;SDS011;2352;48.180;11.478;2024-03-25T21:06:50;2.93;;;2.40;;
4676;SDS011;2352;48.180;11.478;2024-03-25T21:11:51;3.63;;;2.20;;
4676;SDS011;2352;48.180;11.478;2024-03-25T21:16:52;3.40;;;2.60;;
4676;SDS011;2352;48.180;11.478;2024-03-25T21:21:53;3.03;;;2.83;;
4676;SDS011;2352;48.180;11.478;2024-03-25T21:26:53;3.10;;;2.57;;
4676;SDS011;2352;48.180;11.478;2024-03-25T21:31:55;2.40;;;2.20;;
4676;SDS011;2352;48.180;11.478;2024-03-25T21:36:55;2.27;;;2.07;;
4676;SDS011;2352;48.180;11.478;2024-03-25T21:41:56;2.83;;;2.17;;
4676;SDS011;2352;48.180;11.478;2024-03-25T21:46:57;3.93;;;2.17;;
4676;SDS011;2352;48.180;11.478;2024-03-25T21:51:58;3.17;;;2.27;;
4676;SDS011;2352;48.180;11.478;2024-03-25T21:56:58;2.63;;;2.27;;
4676;SDS011;2352;48.180;11.478;2024-03-25T22:01:59;3.17;;;2.87;;
4676;SDS011;2352;48.180;11.478;2024-03-25T22:07:00;3.00;;;2.80;;
4676;SDS011;2352;48.180;11.478;2024-03-25T22:12:01;3.13;;;2.43;;
4676;SDS011;2352;48.180;11.478;2024-03-25T22:17:01;2.13;;;2.00;;
4676;SDS011;2352;48.180;11.478;2024-03-25T22:22:02;2.13;;;1.97;;
4676;SDS011;2352;48.180;11.478;2024-03-25T22:27:03;2.70;;;2.13;;
4676;SDS011;2352;48.180;11.478;2024-03-25T22:32:04;4.40;;;2.17;;
4676;SDS011;2352;48.180;11.478;2024-03-25T22:37:06;2.33;;;2.13;;
4676;SDS011;2352;48.180;11.478;2024-03-25T22:42:08;3.07;;;2.33;;
4676;SDS011;2352;48.180;11.478;2024-03-25T22:47:09;2.50;;;2.30;;
4676;SDS011;2352;48.180;11.478;2024-03-25T22:52:10;2.90;;;2.47;;
4676;SDS011;2352;48.180;11.478;2024-03-25T22:57:11;2.77;;;2.37;;
4676;SDS011;2352;48.180;11.478;2024-03-25T23:02:12;3.03;;;2.77;;
4676;SDS011;2352;48.180;11.478;2024-03-25T23:07:12;2.80;;;2.60;;
4676;SDS011;2352;48.180;11.478;2024-03-25T23:12:14;3.20;;;2.73;;
4676;SDS011;2352;48.180;11.478;2024-03-25T23:17:15;2.47;;;2.27;;
4676;SDS011;2352;48.180;11.478;2024-03-25T23:22:15;2.97;;;2.77;;
4676;SDS011;2352;48.180;11.478;2024-03-25T23:27:16;4.87;;;3.33;;
4676;SDS011;2352;48.180;11.478;2024-03-25T23:32:17;3.07;;;2.77;;
4676;SDS011;2352;48.180;11.478;2024-03-25T23:37:18;2.93;;;2.73;;
4676;SDS011;2352;48.180;11.478;2024-03-25T23:42:19;3.20;;;2.90;;
4676;SDS011;2352;48.180;11.478;2024-03-25T23:47:20;3.80;;;3.30;;
4676;SDS011;2352;48.180;11.478;2024-03-25T23:52:21;5.20;;;3.00;;
4676;SDS011;2352;48.180;11.478;2024-03-25T23:57:21;7.00;;;3.67;;
